PST,Max TemperatureF,Mean TemperatureF,Min TemperatureF,Max Dew PointF,MeanDew PointF,Min DewpointF,Max Humidity, Mean Humidity, Min Humidity, Max Sea Level PressureIn, Mean Sea Level PressureIn, Min Sea Level PressureIn, Max VisibilityMiles, Mean VisibilityMiles, Min VisibilityMiles, Max Wind SpeedMPH, Mean Wind SpeedMPH, Max Gust SpeedMPH,PrecipitationIn, CloudCover, Events, WindDirDegrees
2013-11-1,62,52,43,52,48,43,100,82,64,30.30,30.21,29.94,10,5,0,9,2,13,0.22,6,Fog-Rain,95
2013-11-2,56,49,43,52,46,38,100,82,64,30.09,29.92,29.76,10,8,2,24,9,33,0.49,7,Rain-Thunderstorm,202
2013-11-3,51,44,38,44,41,38,100,83,66,30.18,30.15,30.09,10,10,10,12,6,18,0.02,6,Rain,212
2013-11-4,50,47,44,47,45,43,93,87,80,30.19,30.16,30.13,10,8,2,14,7,19,0.16,8,Rain,189
2013-11-5,53,50,48,52,50,47,100,93,86,30.26,30.18,30.11,10,7,2,17,7,25,0.23,8,Rain,195
2013-11-6,54,51,49,54,51,48,100,97,93,30.31,30.22,30.10,9,4,1,9,3,11,0.28,8,Rain,10
2013-11-7,56,52,48,54,50,45,100,89,77,30.15,30.01,29.90,10,7,1,24,9,44,0.53,8,Rain,191
2013-11-8,51,47,42,47,45,42,100,92,83,30.22,30.18,30.14,10,10,5,12,4,14,0.01,6,Rain,197
2013-11-9,48,44,40,45,43,41,100,90,80,30.13,30.09,30.06,10,8,1,8,1,10,0.00,7,,34
2013-11-10,57,48,40,48,44,40,100,86,72,30.11,30.08,30.06,10,5,0,8,1,10,0.00,3,Fog,9
2013-11-11,54,46,39,48,43,40,100,92,83,30.17,30.08,30.03,10,2,0,8,2,10,0.00,3,Fog,142
2013-11-12,57,50,43,56,49,43,100,96,92,30.44,30.31,30.13,10,3,0,7,1,9,0.25,8,Fog-Rain,252
2013-11-13,51,48,45,50,48,45,100,93,86,30.51,30.44,30.32,10,3,0,8,3,11,0.00,8,Fog,327
2013-11-14,50,44,40,47,45,39,100,90,80,30.31,30.21,30.13,10,4,0,9,3,11,0.02,8,Fog-Rain,223
2013-11-15,48,44,40,45,42,40,100,90,80,30.13,29.94,29.58,10,6,0,25,9,41,0.06,8,Fog-Rain,199
2013-11-16,50,46,44,46,43,39,100,86,71,29.88,29.71,29.56,10,10,9,17,8,26,0.03,7,Rain,214
2013-11-17,53,50,46,45,44,42,93,82,71,30.01,29.98,29.90,10,10,10,23,12,30,0.01,8,Rain,195
2013-11-18,54,52,50,50,46,42,93,82,71,29.99,29.85,29.74,10,10,4,25,10,32,0.31,8,Rain,200
2013-11-19,53,45,36,52,47,33,100,88,76,30.05,29.82,29.73,10,8,2,18,8,28,0.64,8,Rain,262
2013-11-20,47,37,29,33,29,21,100,75,49,30.41,30.24,30.06,10,10,10,21,10,25,0.00,0,,6
2013-11-21,48,38,31,21,16,11,69,47,25,30.57,30.52,30.42,10,10,10,20,14,24,0.00,0,,6
2013-11-22,52,38,24,26,18,15,88,57,26,30.57,30.49,30.39,10,10,10,17,9,22,0.00,0,,14
2013-11-23,53,44,31,24,20,17,56,42,28,30.38,30.27,30.18,10,10,10,16,8,22,0.00,0,,7
2013-11-24,50,38,26,30,27,25,92,67,42,30.30,30.23,30.18,10,9,4,5,1,7,0.00,0,,134
2013-11-25,50,37,25,33,29,25,92,71,50,30.37,30.33,30.31,10,8,5,6,1,7,0.00,0,,168
2013-11-26,45,36,26,36,31,27,100,83,65,30.30,30.23,30.09,10,5,1,6,1,8,0.00,4,,144
2013-11-27,54,41,29,35,32,29,100,73,46,30.07,30.02,29.97,10,6,0,6,2,8,0.00,0,Fog,15
2013-11-28,51,40,25,36,31,26,100,77,54,30.23,30.13,30.05,10,6,1,5,0,7,0.00,0,,115
2013-11-29,44,36,27,39,33,27,100,91,82,30.39,30.31,30.23,8,4,1,9,0,10,0.01,3,Rain,228
2013-11-30,50,44,39,46,41,39,100,90,80,30.41,30.36,30.24,10,3,1,14,2,18,0.02,8,Rain,165